createdAt,value
2023-03-30T19:15:24.488Z,8.63
2023-03-30T19:17:53.151Z,3.75
2023-03-30T19:20:23.650Z,3.25
2023-03-30T19:22:51.853Z,4.03
2023-03-30T19:25:21.348Z,2.95
2023-03-30T19:28:01.943Z,3.60
2023-03-30T19:30:34.780Z,7.38
2023-03-30T19:33:06.490Z,5.45
2023-03-30T19:35:36.744Z,8.38
2023-03-30T19:38:04.721Z,11.77
2023-03-30T19:40:32.634Z,8.02
2023-03-30T19:43:00.487Z,10.30
2023-03-30T19:45:28.393Z,10.60
2023-03-30T19:47:57.651Z,13.88
2023-03-30T19:50:26.392Z,15.50
2023-03-30T19:52:55.361Z,18.50
2023-03-30T19:55:23.613Z,13.10
2023-03-30T19:57:51.587Z,14.95
2023-03-30T20:00:20.449Z,16.40
2023-03-30T20:02:50.786Z,16.77
2023-03-30T20:05:21.619Z,21.48
2023-03-30T20:07:50.413Z,16.58
2023-03-30T20:10:20.555Z,23.63
2023-03-30T20:12:49.407Z,22.30
2023-03-30T20:15:18.621Z,21.88
2023-03-30T20:17:46.717Z,17.98
2023-03-30T20:20:22.623Z,18.10
2023-03-30T20:22:53.561Z,20.33
2023-03-30T20:25:23.080Z,16.02
2023-03-30T20:27:51.012Z,25.20
2023-03-30T20:30:19.250Z,20.08
2023-03-30T20:32:59.660Z,24.58
2023-03-30T20:35:35.699Z,20.45
2023-03-30T20:38:05.037Z,17.40
2023-03-30T20:40:33.557Z,20.05
2023-03-30T20:43:02.190Z,21.17
2023-03-30T20:45:30.559Z,20.70
2023-03-30T20:47:59.721Z,23.08
2023-03-30T20:50:27.761Z,21.08
2023-03-30T20:52:55.959Z,28.52
2023-03-30T20:55:25.206Z,21.73
2023-03-30T20:57:53.090Z,23.85
2023-03-30T21:00:22.211Z,31.42
2023-03-30T21:02:50.525Z,26.33
2023-03-30T21:05:18.553Z,31.60
2023-03-30T21:07:46.835Z,26.38
2023-03-30T21:10:16.220Z,28.48
2023-03-30T21:12:45.528Z,25.48
2023-03-30T21:15:14.039Z,27.98
2023-03-30T21:17:42.070Z,25.52
2023-03-30T21:20:11.663Z,26.25
2023-03-30T21:22:39.541Z,25.15
2023-03-30T21:25:08.128Z,27.42
2023-03-30T21:27:36.438Z,28.38
2023-03-30T21:30:07.039Z,27.42
2023-03-30T21:32:34.965Z,31.08
2023-03-30T21:35:02.876Z,28.88
2023-03-30T21:37:30.812Z,34.10
2023-03-30T21:39:58.694Z,28.10
2023-03-30T21:42:26.556Z,35.22
2023-03-30T21:44:54.670Z,33.50
